עמוד ראשי
METAR-TAF:

METAR-TAF

שדות תעופה :

הילו, הוואי, ארצות הברית

קו רוחב: 19-43-20N, קו אורך: 155-03-21W, גובה: 11מטר

תצפית מזג אוויר נוכחית

הדו"ח נערך לפני 42דקות, בשעה 09:53 UTC
רוח 4קשר מכיוון מערב/דרום-מערב
טמפרטורת 22 צלסיוס
לחות 88%
לחץ 1020 hPa
ראות: 16.1קילומטר
עננים פזורים בגובה 2500רגל
מעונן בגובה 6000רגל

METAR: PHTO 150953Z AUTO 24004KT 10SM SCT025 OVC060 22/20 A3011 RMK AO2 RAE0857 SLP194 P0000 T02170200 402720211 TSNO

זמן: 00:35 (10:35 UTC)

תחזית

הדו"ח נערך לפני 2 שעות ו 30דקות, בשעה 08:05 UTC
תחזית בתוקף מ 15 ב 08 UTC עד 16 ב 06 UTC
רוח 5קשר מכיוון מערב/דרום-מערב
ראות: 10קילומטר
עננים פזורים בגובה 3500רגל
עננים בינוניים בגובה 5000רגל
זמנית מ -
15 ב 08 UTC עד 15 ב 10 UTC
ראות: 4.8קילומטר
עננים בינוניים בגובה 2500רגל
מעונן בגובה 4000רגל
ממטרי גשם קלים
מ 15 ב 2000UTC
רוח 11קשר מכיוון צפון-מזרח
ראות: 10קילומטר
מעט עננים בגובה 3500רגל
עננים בינוניים בגובה 6000רגל

TAF: PHTO 150805Z 1508/1606 25005KT P6SM SCT035 BKN050 TEMPO 1508/1510 3SM -SHRA BKN025 OVC040 FM152000 05011KT P6SM FEW035 BKN060

תצפיות ותחזיות מזג אוויר לגבי יותר מ- 4,000 שדות תעופה ברחבי העולם. דוחות METAR ו- TAF.

התחנות הזמינות מסומנות בנקודות צהובות ואדומות על גבי המפה.

העבר את העכבר לנקודה הצבעונית על מנת לראות את שם התחנה.

לאחר מכן, לחץ כדי לראות את תוכן ואת תחזיות מזג האוויר.

כדי לשנות את המפה: לחץ על הכפתורים הירוקים עם הפלוס השחור כדי להתקרב; על הכפתור הירוק עם המקף כדי להתרחק; או בחיצים הירוקים למפות סמוכות.


METAR-TAF: